Time;durP1;ratioP1;P1;durP2;ratioP2;P2;SDS_P1;SDS_P2;PMS_P1;PMS_P2;Temp;Humidity;BMP_temperature;BMP_pressure;BME280_temperature;BME280_humidity;BME280_pressure;Samples;Min_cycle;Max_cycle;Signal;HPM_P1;HPM_P2
2021/08/16 00:00:53;;;;;;;27.53;5.37;;;17.20;99.90;;;;;;4435563;32;20143;-62
2021/08/16 00:03:20;;;;;;;21.10;5.37;;;17.20;99.90;;;;;;4436174;32;20182;-61
2021/08/16 00:05:46;;;;;;;17.37;5.10;;;17.10;99.90;;;;;;4438335;32;20175;-61
2021/08/16 00:08:13;;;;;;;24.50;5.60;;;17.10;99.90;;;;;;4440247;32;20483;-61
2021/08/16 00:10:40;;;;;;;24.03;5.33;;;17.10;99.90;;;;;;4438981;32;20527;-63
2021/08/16 00:13:09;;;;;;;20.67;4.70;;;17.00;99.90;;;;;;4425774;32;20578;-61
2021/08/16 00:15:36;;;;;;;21.00;5.20;;;16.90;99.90;;;;;;4431697;32;20214;-62
2021/08/16 00:18:04;;;;;;;21.63;5.70;;;16.90;99.90;;;;;;4426732;32;20171;-62
2021/08/16 00:20:32;;;;;;;16.50;5.47;;;16.90;99.90;;;;;;4432410;32;20151;-62
2021/08/16 00:22:59;;;;;;;24.53;5.87;;;16.90;99.90;;;;;;4423259;32;20193;-61
2021/08/16 00:25:26;;;;;;;24.87;5.23;;;16.90;99.90;;;;;;4422881;32;20209;-61
2021/08/16 00:27:53;;;;;;;25.53;5.70;;;16.90;99.90;;;;;;4423021;32;20598;-62
2021/08/16 00:30:21;;;;;;;21.40;6.00;;;16.80;99.90;;;;;;4423393;32;20183;-61
2021/08/16 00:32:49;;;;;;;27.47;6.33;;;16.90;99.90;;;;;;4424080;32;20611;-62
2021/08/16 00:35:15;;;;;;;28.33;6.37;;;16.90;99.90;;;;;;4429562;32;20254;-62
2021/08/16 00:37:44;;;;;;;19.43;5.20;;;16.90;99.90;;;;;;4423135;32;20223;-62
2021/08/16 00:40:13;;;;;;;24.73;6.23;;;17.00;99.90;;;;;;4434917;32;20218;-61
2021/08/16 00:42:40;;;;;;;26.30;5.63;;;17.10;99.90;;;;;;4423849;32;20154;-62
2021/08/16 00:45:08;;;;;;;27.30;6.43;;;17.20;99.90;;;;;;4428286;32;20167;-62
2021/08/16 00:47:38;;;;;;;21.53;5.47;;;17.30;99.90;;;;;;4428111;32;20270;-61
2021/08/16 00:50:06;;;;;;;22.73;5.57;;;17.30;99.90;;;;;;4425066;32;20211;-61
2021/08/16 00:52:33;;;;;;;19.33;4.77;;;17.30;99.90;;;;;;4430831;32;20583;-62
2021/08/16 00:55:04;;;;;;;15.23;4.57;;;17.30;99.90;;;;;;4422919;32;20197;-61
2021/08/16 00:57:33;;;;;;;21.70;4.70;;;17.30;99.90;;;;;;4428232;32;20223;-61
2021/08/16 01:00:02;;;;;;;24.50;5.00;;;17.30;99.90;;;;;;4428599;32;20190;-61
2021/08/16 01:02:30;;;;;;;21.13;5.53;;;17.40;99.90;;;;;;4424747;32;20159;-62
2021/08/16 01:04:58;;;;;;;31.83;7.73;;;17.30;99.90;;;;;;4438136;32;20219;-62
2021/08/16 01:07:25;;;;;;;19.40;4.90;;;17.40;99.90;;;;;;4425571;32;20171;-62
2021/08/16 01:09:52;;;;;;;21.27;5.10;;;17.30;99.90;;;;;;4423079;32;20583;-63
2021/08/16 01:12:19;;;;;;;20.67;5.07;;;17.30;99.90;;;;;;4423869;32;20159;-61
2021/08/16 01:14:46;;;;;;;21.67;6.50;;;17.30;99.90;;;;;;4426277;32;20243;-64
2021/08/16 01:17:13;;;;;;;17.57;4.53;;;17.40;99.90;;;;;;4433993;32;20163;-62
2021/08/16 01:19:41;;;;;;;20.37;4.47;;;17.40;99.90;;;;;;4435100;32;20201;-64
2021/08/16 01:22:09;;;;;;;17.17;5.57;;;17.50;99.90;;;;;;4430473;32;20566;-62
2021/08/16 01:24:36;;;;;;;20.67;4.50;;;17.50;99.90;;;;;;4436909;32;20528;-64
2021/08/16 01:27:09;;;;;;;15.10;4.83;;;17.50;99.90;;;;;;4435329;32;20235;-60
2021/08/16 01:29:36;;;;;;;19.93;5.73;;;17.50;99.90;;;;;;4434750;32;20206;-60
2021/08/16 01:32:03;;;;;;;17.67;4.80;;;17.50;99.90;;;;;;4422480;32;20221;-62
2021/08/16 01:34:31;;;;;;;23.23;5.10;;;17.60;99.90;;;;;;4423002;32;20167;-61
2021/08/16 01:36:58;;;;;;;19.40;5.27;;;17.60;99.90;;;;;;4425022;32;20186;-61
2021/08/16 01:39:25;;;;;;;15.27;4.60;;;17.40;99.90;;;;;;4433952;32;20159;-62
2021/08/16 01:41:52;;;;;;;19.30;5.13;;;17.40;99.90;;;;;;4430621;32;20228;-62
2021/08/16 01:44:22;;;;;;;21.97;5.17;;;17.30;99.90;;;;;;4430617;32;20147;-63
2021/08/16 01:46:53;;;;;;;16.20;3.97;;;17.20;99.90;;;;;;4428328;32;20165;-61
2021/08/16 01:49:21;;;;;;;21.53;5.67;;;17.30;99.90;;;;;;4426724;32;20151;-61
2021/08/16 01:51:48;;;;;;;19.73;5.40;;;17.40;99.90;;;;;;4421897;32;20526;-63
2021/08/16 01:54:16;;;;;;;17.70;4.13;;;17.40;99.90;;;;;;4423312;32;20440;-60
2021/08/16 01:56:43;;;;;;;16.40;4.93;;;17.50;99.90;;;;;;4424200;32;20214;-61
2021/08/16 01:59:12;;;;;;;15.30;3.90;;;17.50;99.90;;;;;;4429231;32;20177;-61
2021/08/16 02:01:40;;;;;;;14.67;3.73;;;17.60;99.90;;;;;;4427548;32;20206;-61
2021/08/16 02:04:07;;;;;;;17.77;4.87;;;17.60;99.90;;;;;;4428849;32;20594;-62
2021/08/16 02:06:33;;;;;;;20.60;4.83;;;17.60;99.90;;;;;;4428382;32;20170;-61
2021/08/16 02:09:00;;;;;;;13.83;4.70;;;17.60;99.90;;;;;;4428459;32;20511;-61
2021/08/16 02:11:27;;;;;;;19.50;4.50;;;17.60;99.90;;;;;;4433241;32;20214;-61
2021/08/16 02:13:54;;;;;;;21.93;5.43;;;17.60;99.90;;;;;;4424654;32;20235;-63
2021/08/16 02:16:21;;;;;;;11.47;3.90;;;17.60;99.90;;;;;;4418685;32;20211;-62
2021/08/16 02:18:50;;;;;;;16.43;5.00;;;17.60;99.90;;;;;;4430254;32;20191;-62
2021/08/16 02:21:17;;;;;;;14.70;3.43;;;17.60;99.90;;;;;;4426900;32;20528;-62
2021/08/16 02:23:44;;;;;;;25.30;5.23;;;17.60;99.90;;;;;;4419750;32;20175;-62
2021/08/16 02:26:11;;;;;;;16.60;4.10;;;17.50;99.90;;;;;;4427057;32;20566;-62
2021/08/16 02:28:37;;;;;;;15.70;3.87;;;17.50;99.90;;;;;;4421536;32;20605;-63
2021/08/16 02:31:04;;;;;;;16.20;3.57;;;17.40;99.90;;;;;;4423241;32;20170;-62
2021/08/16 02:33:40;;;;;;;17.47;4.53;;;17.50;99.90;;;;;;4424148;32;20230;-62
2021/08/16 02:36:08;;;;;;;14.93;3.67;;;17.50;99.90;;;;;;4426685;32;20521;-62
2021/08/16 02:38:36;;;;;;;15.43;3.57;;;17.50;99.90;;;;;;4427838;32;20238;-62
2021/08/16 02:41:03;;;;;;;12.77;3.37;;;17.50;99.90;;;;;;4422627;32;20159;-62
2021/08/16 02:43:30;;;;;;;16.70;3.93;;;17.50;99.90;;;;;;4418175;32;20198;-61
2021/08/16 02:45:57;;;;;;;20.00;3.63;;;17.50;99.90;;;;;;4413438;32;20218;-63
2021/08/16 02:48:24;;;;;;;18.07;4.27;;;17.50;99.90;;;;;;4419340;32;20177;-62
2021/08/16 02:51:10;;;;;;;12.90;3.40;;;17.60;99.90;;;;;;4421338;32;20210;-62
2021/08/16 02:53:37;;;;;;;16.83;3.53;;;17.60;99.90;;;;;;4415254;32;20591;-61
2021/08/16 02:56:04;;;;;;;15.30;4.27;;;17.60;99.90;;;;;;4427319;32;20167;-62
2021/08/16 02:58:31;;;;;;;9.57;3.90;;;17.60;99.90;;;;;;4419547;32;20588;-61
2021/08/16 03:00:58;;;;;;;18.13;4.53;;;17.70;99.90;;;;;;4419684;32;20221;-62
2021/08/16 03:03:25;;;;;;;16.30;3.27;;;17.70;99.90;;;;;;4431392;32;20185;-62
2021/08/16 03:05:52;;;;;;;18.83;4.87;;;17.70;99.90;;;;;;4427134;32;20170;-61
2021/08/16 03:08:21;;;;;;;13.17;3.33;;;17.80;99.90;;;;;;4420736;32;20173;-61
2021/08/16 03:10:47;;;;;;;17.77;4.57;;;17.70;99.90;;;;;;4420730;32;20165;-63
2021/08/16 03:13:15;;;;;;;21.07;4.40;;;17.70;99.90;;;;;;4433830;32;20189;-61
2021/08/16 03:15:42;;;;;;;13.10;3.33;;;17.80;99.90;;;;;;4435947;32;20181;-61
2021/08/16 03:18:09;;;;;;;11.07;3.37;;;17.80;99.90;;;;;;4437260;32;20554;-61
2021/08/16 03:20:36;;;;;;;13.27;3.30;;;17.70;99.90;;;;;;4433720;32;20193;-61
2021/08/16 03:23:03;;;;;;;16.70;4.17;;;17.70;99.90;;;;;;4427671;32;20171;-62
2021/08/16 03:25:32;;;;;;;16.47;3.77;;;17.80;99.90;;;;;;4426744;32;20241;-61
2021/08/16 03:27:58;;;;;;;18.50;4.70;;;17.70;99.90;;;;;;4424148;32;20155;-61
2021/08/16 03:30:25;;;;;;;20.40;5.10;;;17.60;99.90;;;;;;4427121;32;20143;-62
2021/08/16 03:32:52;;;;;;;18.70;4.53;;;17.40;99.90;;;;;;4426472;32;20219;-63
2021/08/16 03:35:19;;;;;;;23.40;5.20;;;17.30;99.90;;;;;;4427242;32;20182;-60
2021/08/16 03:37:46;;;;;;;11.73;3.10;;;17.20;99.90;;;;;;4424373;32;20155;-61
2021/08/16 03:40:14;;;;;;;15.63;4.20;;;17.20;99.90;;;;;;4428254;32;20634;-63
2021/08/16 03:42:42;;;;;;;18.33;3.93;;;17.10;99.90;;;;;;4427428;32;20201;-63
2021/08/16 03:45:14;;;;;;;14.23;3.67;;;17.10;99.90;;;;;;4430250;32;20151;-62
2021/08/16 03:47:41;;;;;;;12.90;3.77;;;17.10;99.90;;;;;;4425550;32;20166;-62
2021/08/16 03:50:09;;;;;;;23.40;4.33;;;17.10;99.90;;;;;;4437623;32;20524;-61
2021/08/16 03:52:36;;;;;;;18.33;5.60;;;17.10;99.90;;;;;;4439153;32;20619;-61
2021/08/16 03:55:04;;;;;;;18.20;4.30;;;17.00;99.90;;;;;;4432038;32;20174;-61
2021/08/16 03:57:30;;;;;;;13.30;3.70;;;17.00;99.90;;;;;;4426628;32;20215;-61
2021/08/16 03:59:59;;;;;;;19.27;4.13;;;17.00;99.90;;;;;;4423659;32;20535;-60
2021/08/16 04:02:26;;;;;;;16.17;3.77;;;16.90;99.90;;;;;;4423927;32;20156;-61
2021/08/16 04:04:53;;;;;;;20.67;4.20;;;16.90;99.90;;;;;;4423082;32;20217;-61
2021/08/16 04:07:20;;;;;;;13.40;3.70;;;16.90;99.90;;;;;;4423840;32;20155;-60
2021/08/16 04:09:47;;;;;;;15.87;4.47;;;16.90;99.90;;;;;;4422804;32;20187;-62
2021/08/16 04:12:16;;;;;;;10.63;3.50;;;17.00;99.90;;;;;;4424471;32;20217;-61
2021/08/16 04:14:43;;;;;;;17.80;4.70;;;17.00;99.90;;;;;;4429482;32;20207;-60
2021/08/16 04:17:12;;;;;;;17.37;4.13;;;17.00;99.90;;;;;;4424303;32;20492;-61
2021/08/16 04:19:40;;;;;;;10.07;4.17;;;16.90;99.90;;;;;;4431171;32;20199;-61
2021/08/16 04:22:07;;;;;;;15.30;4.40;;;16.90;99.90;;;;;;4426115;32;20147;-61
2021/08/16 04:24:34;;;;;;;11.37;4.97;;;17.00;99.90;;;;;;4425509;32;20602;-61
2021/08/16 04:27:01;;;;;;;20.00;4.77;;;17.00;99.90;;;;;;4431684;32;20147;-62
2021/08/16 04:29:28;;;;;;;13.37;4.10;;;17.10;99.90;;;;;;4426112;32;20434;-61
2021/08/16 04:31:56;;;;;;;20.30;3.80;;;17.10;99.90;;;;;;4430977;32;20444;-61
2021/08/16 04:34:28;;;;;;;17.20;4.70;;;17.10;99.90;;;;;;4429814;32;20160;-61
2021/08/16 04:36:54;;;;;;;20.40;4.40;;;17.10;99.90;;;;;;4423343;32;20151;-61
2021/08/16 04:39:21;;;;;;;18.90;4.20;;;17.20;99.90;;;;;;4424531;32;20693;-61
2021/08/16 04:41:50;;;;;;;13.40;3.97;;;17.10;99.90;;;;;;4425384;32;20211;-61
2021/08/16 04:44:19;;;;;;;10.97;3.73;;;17.20;99.90;;;;;;4434093;32;20200;-61
2021/08/16 04:46:46;;;;;;;11.67;3.77;;;17.20;99.90;;;;;;4423837;32;20310;-62
2021/08/16 04:49:13;;;;;;;16.83;3.77;;;17.20;99.90;;;;;;4430478;32;20147;-62
2021/08/16 04:51:41;;;;;;;9.27;3.20;;;17.20;99.90;;;;;;4423587;32;20213;-61
2021/08/16 04:54:08;;;;;;;19.37;3.80;;;17.20;99.90;;;;;;4430175;32;20211;-61
2021/08/16 04:56:35;;;;;;;15.53;4.53;;;17.20;99.90;;;;;;4427075;32;20485;-60
2021/08/16 04:59:03;;;;;;;14.60;4.53;;;17.20;99.90;;;;;;4426387;32;20658;-61
2021/08/16 05:01:30;;;;;;;16.70;3.70;;;17.20;99.90;;;;;;4422703;32;20179;-62
2021/08/16 05:03:57;;;;;;;21.07;5.40;;;17.20;99.90;;;;;;4422666;32;20568;-62
2021/08/16 05:06:29;;;;;;;11.57;4.47;;;17.20;99.90;;;;;;4429677;32;20151;-61
2021/08/16 05:08:58;;;;;;;16.57;4.73;;;17.20;99.90;;;;;;4427220;32;20151;-60
2021/08/16 05:11:25;;;;;;;13.47;4.03;;;17.10;99.90;;;;;;4431371;32;20151;-60
2021/08/16 05:13:52;;;;;;;16.87;4.93;;;17.10;99.90;;;;;;4434573;32;20222;-60
2021/08/16 05:16:20;;;;;;;13.37;3.70;;;17.00;99.90;;;;;;4437931;32;20551;-61
2021/08/16 05:18:47;;;;;;;17.03;4.90;;;17.00;99.90;;;;;;4437623;32;20189;-62
2021/08/16 05:21:13;;;;;;;18.50;5.40;;;17.00;99.90;;;;;;4432264;32;20185;-61
2021/08/16 05:23:40;;;;;;;16.77;5.73;;;16.90;99.90;;;;;;4429207;32;20171;-62
2021/08/16 05:26:12;;;;;;;17.43;4.47;;;16.90;99.90;;;;;;4427714;32;20230;-63
2021/08/16 05:28:38;;;;;;;12.43;4.67;;;16.90;99.90;;;;;;4430223;32;20250;-63
2021/08/16 05:31:05;;;;;;;12.13;4.67;;;16.90;99.90;;;;;;4429568;32;20152;-63
2021/08/16 05:33:32;;;;;;;15.63;5.87;;;16.90;99.90;;;;;;4427350;32;20261;-63
2021/08/16 05:36:02;;;;;;;16.83;6.13;;;16.90;99.90;;;;;;4425422;32;20198;-63
2021/08/16 05:38:29;;;;;;;23.47;7.33;;;16.80;99.90;;;;;;4428939;32;20602;-63
2021/08/16 05:40:56;;;;;;;13.23;5.00;;;16.90;99.90;;;;;;4428055;32;20155;-63
2021/08/16 05:43:24;;;;;;;12.57;5.33;;;16.90;99.90;;;;;;4431103;32;20183;-64
2021/08/16 05:45:53;;;;;;;17.63;5.33;;;16.80;99.90;;;;;;4428063;32;20173;-63
2021/08/16 05:48:20;;;;;;;8.13;4.13;;;16.90;99.90;;;;;;4427900;32;20605;-63
2021/08/16 05:50:47;;;;;;;11.47;4.30;;;16.90;99.90;;;;;;4433035;32;20174;-63
2021/08/16 05:53:14;;;;;;;13.70;4.53;;;16.90;99.90;;;;;;4428261;32;20704;-64
2021/08/16 05:55:41;;;;;;;11.13;5.13;;;16.80;99.90;;;;;;4426082;32;20163;-63
2021/08/16 05:58:07;;;;;;;10.20;5.20;;;16.80;99.90;;;;;;4427097;32;20260;-63
2021/08/16 06:00:43;;;;;;;9.53;4.60;;;16.80;99.90;;;;;;4428092;32;20227;-63
2021/08/16 06:03:10;;;;;;;10.43;4.37;;;16.90;99.90;;;;;;4425139;32;20144;-62
2021/08/16 06:05:37;;;;;;;11.10;4.80;;;16.90;99.90;;;;;;4428915;32;20159;-63
2021/08/16 06:08:05;;;;;;;10.90;5.03;;;16.90;99.90;;;;;;4423778;32;20219;-64
2021/08/16 06:10:32;;;;;;;12.17;4.50;;;16.90;99.90;;;;;;4427999;32;20639;-64
2021/08/16 06:12:59;;;;;;;12.90;4.50;;;16.80;99.90;;;;;;4425000;32;20170;-62
2021/08/16 06:15:26;;;;;;;9.63;4.03;;;16.80;99.90;;;;;;4426855;32;20231;-62
2021/08/16 06:17:54;;;;;;;11.67;4.03;;;16.70;99.90;;;;;;4427306;32;20159;-62
2021/08/16 06:20:21;;;;;;;8.63;3.90;;;16.70;99.90;;;;;;4428302;32;20175;-63
2021/08/16 06:22:47;;;;;;;5.57;3.67;;;16.60;99.90;;;;;;4427654;32;20179;-61
2021/08/16 06:25:15;;;;;;;6.80;2.70;;;16.70;99.90;;;;;;4428687;32;20210;-62
2021/08/16 06:27:42;;;;;;;4.93;2.67;;;16.60;99.90;;;;;;4426168;32;20175;-62
2021/08/16 06:30:10;;;;;;;4.37;2.83;;;16.60;99.90;;;;;;4427630;32;20159;-62
2021/08/16 06:32:37;;;;;;;6.47;2.63;;;16.60;99.90;;;;;;4428201;32;20177;-63
2021/08/16 06:35:07;;;;;;;4.37;3.07;;;16.80;99.90;;;;;;4428172;32;20617;-63
2021/08/16 06:37:34;;;;;;;6.57;2.97;;;16.90;99.90;;;;;;4422930;32;20162;-62
2021/08/16 06:40:01;;;;;;;4.80;2.60;;;16.80;99.90;;;;;;4426123;32;20219;-63
2021/08/16 06:42:28;;;;;;;6.27;2.70;;;16.80;99.90;;;;;;4424649;32;20223;-63
2021/08/16 06:44:55;;;;;;;8.93;3.30;;;16.80;99.90;;;;;;4420558;32;20240;-63
2021/08/16 06:47:22;;;;;;;17.27;4.73;;;16.80;99.90;;;;;;4425768;32;20187;-63
2021/08/16 06:49:49;;;;;;;6.30;2.93;;;16.80;99.90;;;;;;4422426;32;20230;-63
2021/08/16 06:52:17;;;;;;;6.17;3.33;;;16.80;99.90;;;;;;4425689;32;20219;-63
2021/08/16 06:54:44;;;;;;;10.80;4.13;;;16.70;99.90;;;;;;4424696;32;20505;-63
2021/08/16 06:57:11;;;;;;;8.23;4.10;;;16.70;99.90;;;;;;4421541;32;20567;-63
2021/08/16 06:59:38;;;;;;;12.40;3.40;;;16.80;99.90;;;;;;4425150;32;20476;-63
2021/08/16 07:02:05;;;;;;;8.37;3.60;;;16.90;99.90;;;;;;4423945;32;20155;-62
2021/08/16 07:04:32;;;;;;;12.23;3.87;;;16.90;99.90;;;;;;4430484;32;20190;-63
2021/08/16 07:06:58;;;;;;;10.90;3.60;;;17.00;99.90;;;;;;4427786;32;20166;-63
2021/08/16 07:09:27;;;;;;;9.97;3.80;;;17.00;99.90;;;;;;4423684;32;20233;-64
2021/08/16 07:11:55;;;;;;;9.90;3.30;;;17.00;99.90;;;;;;4423833;32;20465;-63
2021/08/16 07:14:22;;;;;;;8.10;3.60;;;16.90;99.90;;;;;;4422375;32;20585;-63
2021/08/16 07:16:49;;;;;;;10.07;3.63;;;16.80;99.90;;;;;;4422026;32;20323;-63
2021/08/16 07:19:16;;;;;;;10.77;3.63;;;16.90;99.90;;;;;;4421163;32;20448;-63
2021/08/16 07:21:46;;;;;;;11.63;3.90;;;16.80;99.90;;;;;;4422154;32;20171;-63
2021/08/16 07:24:12;;;;;;;10.43;4.17;;;16.50;99.90;;;;;;4424448;32;20228;-63
2021/08/16 07:26:41;;;;;;;13.90;4.60;;;16.40;99.90;;;;;;4420733;32;20150;-63
2021/08/16 07:29:07;;;;;;;9.73;4.23;;;16.30;99.90;;;;;;4421701;32;20194;-63
2021/08/16 07:31:34;;;;;;;12.07;4.37;;;16.30;99.90;;;;;;4422126;32;20618;-62
2021/08/16 07:34:01;;;;;;;13.57;4.60;;;16.20;99.90;;;;;;4426135;32;20235;-63
2021/08/16 07:36:28;;;;;;;7.30;4.33;;;16.10;99.90;;;;;;4426837;32;20174;-62
2021/08/16 07:38:55;;;;;;;8.40;4.23;;;16.10;99.90;;;;;;4428260;32;20723;-62
2021/08/16 07:41:21;;;;;;;9.83;3.97;;;16.00;99.90;;;;;;4428082;32;20499;-62
2021/08/16 07:43:50;;;;;;;9.70;4.47;;;15.90;99.90;;;;;;4424829;32;20606;-63
2021/08/16 07:46:17;;;;;;;9.03;3.60;;;15.90;99.90;;;;;;4425150;32;20173;-63
2021/08/16 07:48:43;;;;;;;9.23;4.40;;;16.00;99.90;;;;;;4425477;32;20159;-63
2021/08/16 07:51:10;;;;;;;8.27;3.80;;;16.00;99.90;;;;;;4423139;32;20218;-62
2021/08/16 07:53:37;;;;;;;13.77;4.50;;;15.90;99.90;;;;;;4422055;32;20552;-62
2021/08/16 07:56:04;;;;;;;18.37;6.17;;;15.70;99.90;;;;;;4429256;32;20482;-63
2021/08/16 07:58:31;;;;;;;12.93;5.47;;;15.60;99.90;;;;;;4422646;32;20634;-62
2021/08/16 08:00:59;;;;;;;10.87;4.40;;;15.70;99.90;;;;;;4422763;32;20151;-63
2021/08/16 08:03:28;;;;;;;9.00;3.90;;;15.80;99.90;;;;;;4421289;32;20189;-62
2021/08/16 08:05:56;;;;;;;13.63;4.70;;;15.80;99.90;;;;;;4426188;32;20185;-62
2021/08/16 08:08:23;;;;;;;9.67;5.83;;;16.00;99.90;;;;;;4421702;32;20244;-63
2021/08/16 08:10:53;;;;;;;10.13;3.80;;;16.10;99.90;;;;;;4425989;32;20233;-62
2021/08/16 08:13:20;;;;;;;11.20;3.70;;;16.40;99.90;;;;;;4425373;32;20199;-62
2021/08/16 08:15:47;;;;;;;10.57;4.27;;;17.00;99.90;;;;;;4426039;32;20621;-62
2021/08/16 08:18:15;;;;;;;11.70;4.60;;;17.00;99.90;;;;;;4423128;32;20178;-61
2021/08/16 08:20:42;;;;;;;9.60;4.70;;;16.90;99.90;;;;;;4423077;32;20199;-64
2021/08/16 08:23:11;;;;;;;12.27;4.20;;;17.00;99.90;;;;;;4426954;32;20486;-63
2021/08/16 08:25:40;;;;;;;12.13;3.50;;;16.80;99.90;;;;;;4426571;32;20158;-62
2021/08/16 08:28:11;;;;;;;9.27;3.43;;;16.60;99.90;;;;;;4427931;32;20171;-63
2021/08/16 08:30:39;;;;;;;9.90;3.40;;;16.50;99.90;;;;;;4426196;32;20174;-62
2021/08/16 08:33:06;;;;;;;7.53;4.03;;;16.60;99.90;;;;;;4426460;32;20670;-62
2021/08/16 08:35:34;;;;;;;7.07;3.20;;;16.70;99.90;;;;;;4426725;32;20151;-62
2021/08/16 08:38:02;;;;;;;12.27;3.87;;;16.80;99.90;;;;;;4428059;32;20623;-63
2021/08/16 08:40:28;;;;;;;9.87;3.40;;;16.90;99.90;;;;;;4425904;32;20540;-62
2021/08/16 08:42:58;;;;;;;11.10;3.83;;;17.00;99.90;;;;;;4428708;32;20167;-61
2021/08/16 08:45:27;;;;;;;9.03;3.73;;;17.10;99.90;;;;;;4427898;32;20634;-62
2021/08/16 08:47:55;;;;;;;7.80;3.00;;;17.20;99.90;;;;;;4424826;32;20286;-63
2021/08/16 08:50:22;;;;;;;9.63;4.13;;;17.40;99.90;;;;;;4428952;32;20159;-61
2021/08/16 08:52:51;;;;;;;7.43;3.93;;;17.40;99.90;;;;;;4428430;32;20178;-60
2021/08/16 08:55:18;;;;;;;7.00;3.40;;;17.30;99.90;;;;;;4425303;32;20174;-62
2021/08/16 08:57:45;;;;;;;9.60;3.43;;;17.20;99.90;;;;;;4425381;32;20163;-63
2021/08/16 09:00:16;;;;;;;8.60;3.20;;;17.10;99.90;;;;;;4428299;32;20163;-62
2021/08/16 09:02:43;;;;;;;7.90;3.17;;;17.10;99.90;;;;;;4428024;32;20159;-62
2021/08/16 09:05:12;;;;;;;13.60;4.50;;;17.10;99.90;;;;;;4430459;32;20186;-62
2021/08/16 09:07:40;;;;;;;13.47;4.47;;;17.10;99.90;;;;;;4426824;32;20229;-64
2021/08/16 09:10:13;;;;;;;6.77;4.50;;;17.20;99.90;;;;;;4425070;32;20571;-61
2021/08/16 09:12:41;;;;;;;9.07;4.30;;;17.60;99.90;;;;;;4425553;32;20222;-62
2021/08/16 09:15:15;;;;;;;11.47;4.07;;;17.80;99.90;;;;;;4427752;32;20159;-62
2021/08/16 09:17:42;;;;;;;10.03;4.83;;;17.90;99.90;;;;;;4424167;32;20227;-63
2021/08/16 09:20:16;;;;;;;14.03;4.20;;;17.80;99.90;;;;;;4422970;32;20189;-63
2021/08/16 09:22:43;;;;;;;14.03;5.10;;;17.80;99.90;;;;;;4425602;32;20197;-62
2021/08/16 09:25:13;;;;;;;9.33;4.40;;;18.00;99.90;;;;;;4424953;32;20171;-63
2021/08/16 09:27:46;;;;;;;10.30;4.60;;;18.20;99.90;;;;;;4422465;32;20151;-62
2021/08/16 09:30:14;;;;;;;13.27;4.70;;;18.30;99.90;;;;;;4422985;32;20179;-63
2021/08/16 09:32:44;;;;;;;13.20;4.60;;;18.60;99.90;;;;;;4426479;32;20202;-62
2021/08/16 09:35:12;;;;;;;19.20;4.87;;;19.50;99.90;;;;;;4426347;32;20173;-63
2021/08/16 09:37:40;;;;;;;12.20;5.30;;;20.40;99.90;;;;;;4427140;32;20193;-64
2021/08/16 09:40:09;;;;;;;10.27;4.80;;;20.90;99.90;;;;;;4428489;32;20251;-63
2021/08/16 09:42:48;;;;;;;12.87;5.13;;;21.30;99.90;;;;;;4429885;32;20163;-62
2021/08/16 09:45:28;;;;;;;9.57;4.80;;;21.60;99.90;;;;;;4426307;32;20207;-63
2021/08/16 09:47:58;;;;;;;10.80;5.33;;;21.20;99.90;;;;;;4429490;32;20156;-64
2021/08/16 09:50:36;;;;;;;14.70;5.67;;;20.70;99.90;;;;;;4428089;32;20174;-61
2021/08/16 09:53:07;;;;;;;9.50;4.97;;;20.40;99.90;;;;;;4423740;32;20173;-64
2021/08/16 09:55:35;;;;;;;12.23;5.07;;;20.60;99.90;;;;;;4425677;32;20239;-64
2021/08/16 09:58:06;;;;;;;8.43;4.87;;;21.10;99.90;;;;;;4426088;32;20265;-61
2021/08/16 10:00:33;;;;;;;8.67;4.43;;;21.30;99.90;;;;;;4428026;32;20151;-62
2021/08/16 10:03:01;;;;;;;9.10;4.00;;;21.50;99.90;;;;;;4428747;32;20498;-62
2021/08/16 10:05:29;;;;;;;9.87;4.67;;;21.20;99.90;;;;;;4430945;32;20616;-64
2021/08/16 10:07:58;;;;;;;7.37;4.30;;;20.90;99.90;;;;;;4428126;32;20171;-62
2021/08/16 10:10:25;;;;;;;11.17;4.43;;;20.70;99.90;;;;;;4424010;32;20205;-62
2021/08/16 10:12:52;;;;;;;12.67;4.30;;;20.20;99.90;;;;;;4428766;32;20249;-64
2021/08/16 10:15:21;;;;;;;6.70;3.33;;;20.00;99.90;;;;;;4425261;32;20167;-63
2021/08/16 10:17:48;;;;;;;7.83;3.20;;;20.10;99.90;;;;;;4426504;32;20643;-63
2021/08/16 10:20:16;;;;;;;9.30;3.60;;;20.70;99.90;;;;;;4430387;32;20230;-66
2021/08/16 10:22:43;;;;;;;8.00;3.70;;;21.10;99.90;;;;;;4426437;32;20576;-63
2021/08/16 10:25:12;;;;;;;9.93;3.57;;;20.80;99.90;;;;;;4425419;32;20175;-62
2021/08/16 10:27:39;;;;;;;9.17;3.30;;;20.50;99.90;;;;;;4425833;32;20230;-63
2021/08/16 10:30:10;;;;;;;8.70;4.40;;;20.30;99.90;;;;;;4425052;32;20282;-62
2021/08/16 10:32:39;;;;;;;7.33;3.77;;;20.30;99.90;;;;;;4428800;32;20282;-62
2021/08/16 10:35:08;;;;;;;5.67;3.47;;;20.50;99.90;;;;;;4427210;32;20156;-62
2021/08/16 10:37:40;;;;;;;6.17;3.10;;;20.60;99.90;;;;;;4422877;32;20225;-64
2021/08/16 10:40:19;;;;;;;8.77;3.30;;;21.00;99.90;;;;;;4428453;32;20170;-61
2021/08/16 10:42:46;;;;;;;5.47;3.03;;;20.80;99.90;;;;;;4427896;32;20169;-63
2021/08/16 10:45:24;;;;;;;5.07;3.07;;;21.60;99.90;;;;;;4426682;32;20155;-63
2021/08/16 10:48:01;;;;;;;5.70;3.17;;;22.00;99.80;;;;;;4430960;32;20524;-61
2021/08/16 10:50:28;;;;;;;4.93;3.10;;;21.50;99.60;;;;;;4425918;32;20521;-61
2021/08/16 10:53:02;;;;;;;7.00;2.13;;;20.70;99.90;;;;;;4427841;32;20497;-64
2021/08/16 10:55:30;;;;;;;8.53;3.30;;;20.00;99.90;;;;;;4424805;32;20758;-62
2021/08/16 10:57:57;;;;;;;6.73;2.90;;;20.00;99.90;;;;;;4425895;32;20214;-62
2021/08/16 11:00:24;;;;;;;6.23;3.50;;;19.60;99.90;;;;;;4424943;32;20178;-61
2021/08/16 11:02:55;;;;;;;8.27;3.57;;;19.70;99.90;;;;;;4428287;32;20151;-64
2021/08/16 11:05:30;;;;;;;9.17;3.37;;;19.90;99.90;;;;;;4351208;32;2395359;-64
2021/08/16 11:08:01;;;;;;;7.23;3.90;;;20.40;99.90;;;;;;4425660;32;20197;-62
2021/08/16 11:10:29;;;;;;;6.30;3.67;;;20.60;99.90;;;;;;4422452;32;20144;-62
2021/08/16 11:12:59;;;;;;;7.90;3.90;;;20.70;99.90;;;;;;4426466;32;20226;-62
2021/08/16 11:15:35;;;;;;;7.97;4.07;;;20.60;99.90;;;;;;4423205;32;20140;-62
2021/08/16 11:18:11;;;;;;;8.70;3.60;;;20.20;99.90;;;;;;4423852;32;20162;-63
2021/08/16 11:20:38;;;;;;;7.67;3.10;;;19.50;99.90;;;;;;4426401;32;20170;-63
2021/08/16 11:23:05;;;;;;;10.90;4.40;;;17.90;99.90;;;;;;4423953;32;20570;-63
2021/08/16 11:25:32;;;;;;;8.93;3.77;;;16.80;99.90;;;;;;4422720;32;20153;-63
2021/08/16 11:28:01;;;;;;;9.43;3.43;;;16.20;99.90;;;;;;4425852;32;20521;-62
2021/08/16 11:30:30;;;;;;;9.73;3.50;;;15.80;99.90;;;;;;4428240;32;20453;-62
2021/08/16 11:32:57;;;;;;;10.90;3.90;;;15.90;99.90;;;;;;4425411;32;20173;-64
2021/08/16 11:35:31;;;;;;;9.37;3.87;;;16.00;99.90;;;;;;4427453;32;20143;-63
2021/08/16 11:37:58;;;;;;;8.00;3.43;;;16.10;99.90;;;;;;4426954;32;20486;-62
2021/08/16 11:40:27;;;;;;;14.67;3.70;;;16.20;99.90;;;;;;4422963;32;20148;-62
2021/08/16 11:42:54;;;;;;;10.20;4.03;;;16.40;99.90;;;;;;4432465;32;20185;-61
2021/08/16 11:45:21;;;;;;;8.77;3.57;;;16.50;99.90;;;;;;4430505;32;20167;-62
2021/08/16 11:47:50;;;;;;;8.67;4.00;;;16.50;99.90;;;;;;4429016;32;20143;-62
2021/08/16 11:50:18;;;;;;;14.57;4.57;;;16.70;99.90;;;;;;4426632;32;20147;-61
2021/08/16 11:52:49;;;;;;;11.93;3.73;;;16.70;99.90;;;;;;4424836;32;20282;-62
2021/08/16 11:55:16;;;;;;;7.80;3.07;;;16.40;99.90;;;;;;4425556;32;20614;-64
2021/08/16 11:57:52;;;;;;;10.13;3.90;;;16.40;99.90;;;;;;4424089;32;20225;-63
2021/08/16 12:00:24;;;;;;;12.60;4.60;;;16.40;99.90;;;;;;4429085;32;20196;-64
2021/08/16 12:02:55;;;;;;;7.43;3.70;;;16.70;99.90;;;;;;4427676;32;20148;-64
2021/08/16 12:05:22;;;;;;;13.77;3.90;;;16.40;99.90;;;;;;4422146;32;20143;-64
2021/08/16 12:07:50;;;;;;;9.47;4.57;;;16.60;99.90;;;;;;4426762;32;20152;-63
2021/08/16 12:10:23;;;;;;;18.30;5.53;;;16.70;99.90;;;;;;4423498;32;20215;-63
2021/08/16 12:13:01;;;;;;;13.43;3.70;;;16.80;99.90;;;;;;4427694;32;20166;-63
2021/08/16 12:15:39;;;;;;;10.33;4.13;;;17.00;99.90;;;;;;4437749;32;20226;-62
2021/08/16 12:18:07;;;;;;;17.70;4.33;;;17.20;99.90;;;;;;4424722;32;20208;-62
2021/08/16 12:20:41;;;;;;;9.83;3.30;;;17.50;99.90;;;;;;4424533;32;20202;-62
2021/08/16 12:23:10;;;;;;;11.83;3.83;;;17.70;99.90;;;;;;4427289;32;20146;-62
2021/08/16 12:25:47;;;;;;;12.70;4.27;;;17.80;99.90;;;;;;4430582;32;20181;-62
2021/08/16 12:28:14;;;;;;;11.10;3.60;;;17.80;99.90;;;;;;4431367;32;20626;-61
2021/08/16 12:30:41;;;;;;;13.20;4.17;;;18.00;99.90;;;;;;4422018;32;20167;-62
2021/08/16 12:33:09;;;;;;;13.67;4.00;;;18.20;99.90;;;;;;4427886;32;20470;-62
2021/08/16 12:35:37;;;;;;;8.77;3.63;;;18.50;99.90;;;;;;4429437;32;20147;-62
2021/08/16 12:38:06;;;;;;;15.10;4.47;;;18.60;99.90;;;;;;4428819;32;20156;-61
2021/08/16 12:40:35;;;;;;;7.37;3.13;;;18.70;99.90;;;;;;4429590;32;20203;-62
2021/08/16 12:43:05;;;;;;;12.80;3.10;;;18.80;99.90;;;;;;4428059;32;20495;-62
2021/08/16 12:45:33;;;;;;;8.00;2.83;;;19.00;99.90;;;;;;4427486;32;20143;-63